createdAt,value
2023-01-31T00:02:06.509Z,76.18674109561414
2023-01-31T00:07:03.651Z,76.03177860691862
2023-01-31T00:12:01.008Z,75.55032365313554
2023-01-31T00:16:58.223Z,75.01074630221977
2023-01-31T00:21:55.461Z,76.48735694451553
2023-01-31T00:26:53.829Z,77.92800679135111
2023-01-31T00:31:52.134Z,77.69268061388814
2023-01-31T00:36:50.205Z,77.97215663484383
2023-01-31T00:41:45.487Z,77.53758113198431
2023-01-31T00:46:41.780Z,77.52925390291652
2023-01-31T00:51:38.403Z,77.04434750138113
2023-01-31T00:56:34.707Z,76.98609571700655
2023-01-31T01:01:37.033Z,76.86535924533074
2023-01-31T01:06:32.836Z,77.21886909965014
2023-01-31T01:11:29.020Z,77.08725910023895
2023-01-31T01:16:26.395Z,76.44728968868831
2023-01-31T01:21:23.577Z,77.12923370039285
2023-01-31T01:26:20.828Z,77.44734895038047
2023-01-31T01:31:18.179Z,77.52253978411228
2023-01-31T01:36:15.301Z,77.61597359072441
2023-01-31T01:41:12.574Z,77.22522083185461
2023-01-31T01:46:09.912Z,76.40269843575533
2023-01-31T01:51:08.093Z,76.56968119976509
2023-01-31T01:56:08.388Z,76.69113464826576
2023-01-31T02:01:06.664Z,76.62943772474578
2023-01-31T02:06:05.844Z,76.68043925044847
2023-01-31T02:11:04.130Z,76.54030434700944
2023-01-31T02:16:00.341Z,77.35032069036298
2023-01-31T02:21:13.608Z,78.02615576348404
2023-01-31T02:26:28.844Z,78.44117995267631
2023-01-31T02:31:36.068Z,78.53293137290211
2023-01-31T02:36:43.271Z,79.17341584751638
2023-01-31T02:41:49.502Z,79.3943566145089
2023-01-31T02:46:51.724Z,78.61983612354123
2023-01-31T02:51:52.983Z,77.88698516191745
2023-01-31T02:56:52.204Z,77.1970365014013
2023-01-31T03:01:55.441Z,76.90161890890859
2023-01-31T03:07:01.692Z,77.5142186463347
2023-01-31T03:12:03.959Z,77.92128906469165
2023-01-31T03:17:06.175Z,78.13354148963086
2023-01-31T03:22:07.430Z,78.12211433497816
2023-01-31T03:27:04.723Z,77.45859123923645
2023-01-31T03:32:04.975Z,77.10905775313961
2023-01-31T03:37:08.223Z,77.04549724369377
2023-01-31T03:42:12.420Z,76.5424959624596
2023-01-31T03:47:14.469Z,76.51264573146932
2023-01-31T03:52:17.891Z,77.35781647090103
2023-01-31T03:57:19.170Z,77.76425133716992
2023-01-31T04:02:18.415Z,77.92151256658732
2023-01-31T04:07:14.649Z,77.83617067427345
2023-01-31T04:12:12.960Z,77.56019239150115
2023-01-31T04:17:09.234Z,77.24960434244626
2023-01-31T04:22:05.450Z,77.45025280850575
2023-01-31T04:27:01.662Z,77.40397635934505
2023-01-31T04:31:58.154Z,77.49702247168747
2023-01-31T04:36:54.245Z,77.58162909301956
2023-01-31T04:41:50.470Z,77.91824200625756
2023-01-31T04:46:46.855Z,77.87814278148863
2023-01-31T04:51:43.007Z,77.813893945998
2023-01-31T05:01:43.551Z,78.49638504117226
2023-01-31T05:06:39.738Z,78.91244580991832
2023-01-31T05:11:37.021Z,79.39724400005099
2023-01-31T05:16:33.296Z,79.48350543362102
2023-01-31T05:21:29.558Z,79.15613090846047
2023-01-31T05:26:25.831Z,79.11024242714882
2023-01-31T05:31:22.158Z,79.90568043973025
2023-01-31T05:36:18.288Z,80.41293755543656
2023-01-31T05:41:13.577Z,80.26605920619764
2023-01-31T05:46:09.856Z,79.88385779426687
2023-01-31T05:51:06.095Z,79.31306850355425
2023-01-31T05:56:02.654Z,78.59334835065242
2023-01-31T06:00:58.604Z,78.2511930731361
2023-01-31T06:05:54.861Z,78.55348103199657
2023-01-31T06:10:51.161Z,78.45249465605214
2023-01-31T06:15:49.458Z,78.85142022699446
2023-01-31T06:20:45.611Z,79.2057388900246
2023-01-31T06:25:41.921Z,79.69680213218305
2023-01-31T06:30:38.382Z,79.77127867170861
2023-01-31T06:35:34.421Z,79.57236009868988
2023-01-31T06:45:35.933Z,78.63093740448465
2023-01-31T06:50:32.843Z,78.55933121746656
2023-01-31T06:55:29.427Z,77.0401659313489
2023-01-31T07:00:25.729Z,75.97947277923471
2023-01-31T07:05:22.091Z,75.48413435709799
2023-01-31T07:10:18.229Z,75.09494059049425
2023-01-31T07:15:14.467Z,74.43079503206754
2023-01-31T07:20:11.713Z,74.09548557591935
2023-01-31T07:25:07.999Z,73.93792880144956
2023-01-31T07:30:04.273Z,72.9219117790639
2023-01-31T07:35:00.552Z,72.148736231787
2023-01-31T07:39:56.773Z,71.51404707477957
2023-01-31T07:44:52.051Z,71.3197274985116
2023-01-31T07:49:48.334Z,70.49032839351443
2023-01-31T07:54:44.543Z,67.31772204337409
2023-01-31T07:59:40.785Z,68.64439569430581
2023-01-31T08:04:37.092Z,68.40043384221703
2023-01-31T08:14:38.560Z,66.43883742454192
2023-01-31T08:19:34.821Z,65.18758100847343
2023-01-31T08:29:36.311Z,63.64467655195933
2023-01-31T08:34:32.898Z,62.934017540517104
2023-01-31T08:39:29.233Z,62.62856148258221
2023-01-31T08:44:25.085Z,62.15929273896787
2023-01-31T08:49:21.340Z,60.90072181928603
2023-01-31T08:54:17.594Z,59.99931271342822
2023-01-31T08:59:14.880Z,60.759020019208634
2023-01-31T09:04:11.173Z,59.565468384607534
2023-01-31T09:09:07.411Z,59.55660103947961
2023-01-31T09:14:04.608Z,59.43769730735704
2023-01-31T09:19:00.923Z,58.00955547121524
2023-01-31T09:23:58.153Z,57.89718472331452
2023-01-31T09:28:55.438Z,57.49533218035198
2023-01-31T09:33:50.724Z,57.08574056286208
2023-01-31T09:38:47.938Z,57.5734145433562
2023-01-31T09:43:45.191Z,56.74510135696939
2023-01-31T09:48:48.452Z,55.36927355434812
2023-01-31T09:53:46.676Z,56.28716824318001
2023-01-31T09:58:52.902Z,55.45906001905231
2023-01-31T10:04:01.253Z,55.24062111258848
2023-01-31T10:09:08.413Z,52.604937972393174
2023-01-31T10:14:14.624Z,52.773724741489175
2023-01-31T10:19:15.857Z,52.90784306878068
2023-01-31T10:24:15.121Z,52.6078869151142
2023-01-31T10:29:16.422Z,51.96861181097562
2023-01-31T10:34:17.644Z,49.21422658367272
2023-01-31T10:39:20.858Z,49.12581609225654
2023-01-31T10:49:27.326Z,50.65037425123167
2023-01-31T10:54:38.581Z,49.266388526939885
2023-01-31T10:59:37.861Z,50.77448213425008
2023-01-31T11:04:39.098Z,49.33985387735161
2023-01-31T11:09:37.281Z,48.80823661691118
2023-01-31T11:14:34.563Z,48.845582173853785
2023-01-31T11:19:35.834Z,51.325448870748986
2023-01-31T11:24:37.061Z,50.309083296296556
2023-01-31T11:29:35.328Z,49.21955223831607
2023-01-31T11:34:32.592Z,49.692136631294666
2023-01-31T11:39:30.863Z,50.53558916519295
2023-01-31T11:44:37.095Z,48.456486753506105
2023-01-31T11:49:42.322Z,47.628124331915046
2023-01-31T11:54:40.575Z,46.799887439863205
2023-01-31T11:59:37.808Z,48.20266992702616
2023-01-31T12:04:40.043Z,47.94855226461264
2023-01-31T12:09:42.315Z,48.39996771583634
2023-01-31T12:14:47.555Z,46.71465287128598
2023-01-31T12:19:54.791Z,44.430330631224734
2023-01-31T12:25:03.024Z,46.19045646862374
2023-01-31T12:30:13.239Z,47.18436032810353
2023-01-31T12:35:23.816Z,45.90978741311474
2023-01-31T12:40:34.683Z,42.346674048263125
2023-01-31T12:45:43.910Z,43.57730778355641
2023-01-31T12:50:59.128Z,46.01776885713468
2023-01-31T12:56:09.342Z,47.5049187008018
2023-01-31T13:01:12.615Z,45.522878633016504
2023-01-31T13:06:14.836Z,43.999454031548375
2023-01-31T13:11:18.089Z,41.08253265362132
2023-01-31T13:16:20.348Z,42.24865199319295
2023-01-31T13:21:21.615Z,41.55931048176034
2023-01-31T13:26:23.844Z,44.968117184863615
2023-01-31T13:31:24.140Z,44.680908031199635
2023-01-31T13:36:25.308Z,42.143506305622154
2023-01-31T13:41:26.565Z,43.26576283083341
2023-01-31T13:46:29.850Z,46.11621004693405
2023-01-31T13:51:31.017Z,45.987690827291935
2023-01-31T13:56:30.279Z,45.10751886571555
2023-01-31T14:01:32.580Z,42.53635473687486
2023-01-31T14:06:34.805Z,39.93773579011703
2023-01-31T14:11:33.064Z,36.462200515281204
2023-01-31T14:16:35.292Z,36.756044928518
2023-01-31T14:21:42.568Z,34.91284530681921
2023-01-31T14:26:49.855Z,34.84653717044755
2023-01-31T14:31:47.066Z,35.19367995768138
2023-01-31T14:36:56.242Z,37.50894850474374
2023-01-31T14:42:06.484Z,37.109913135680046
2023-01-31T14:47:16.704Z,38.05726727379684
2023-01-31T14:52:25.931Z,36.43984164778721
2023-01-31T14:57:27.134Z,42.17812332127687
2023-01-31T15:02:29.492Z,44.984404517484705
2023-01-31T15:07:26.644Z,46.762224195357
2023-01-31T15:12:33.882Z,45.91819682704733
2023-01-31T15:17:37.546Z,43.213696113302255
2023-01-31T15:22:38.397Z,45.32754053117371
2023-01-31T15:27:37.610Z,52.32972250881518
2023-01-31T15:32:40.867Z,54.45631143193707
2023-01-31T15:37:40.114Z,56.18704996186127
2023-01-31T15:42:42.333Z,57.44321652180062
2023-01-31T15:47:49.020Z,59.89364223335536
2023-01-31T15:52:45.873Z,61.122036460816496
2023-01-31T15:57:50.376Z,61.36587162050837
2023-01-31T16:02:51.431Z,61.993061160946915
2023-01-31T16:07:49.971Z,62.97699795788573
2023-01-31T16:12:47.906Z,64.2103583988976
2023-01-31T16:17:44.112Z,66.22826931248436
2023-01-31T16:22:51.392Z,67.17149014481582
2023-01-31T16:27:47.567Z,67.4304653210243
2023-01-31T16:32:47.853Z,66.93138879643355
2023-01-31T16:37:44.098Z,67.25316480826118
2023-01-31T16:42:45.338Z,67.19239934138459
2023-01-31T16:47:47.627Z,66.99257432546959
2023-01-31T16:52:49.851Z,67.67416406157959
2023-01-31T16:57:53.075Z,67.58906045005386
2023-01-31T17:02:53.455Z,66.87652915933579
2023-01-31T17:07:51.576Z,67.04512681905454
2023-01-31T17:12:50.850Z,67.32291861671571
2023-01-31T17:17:47.147Z,68.01698244577389
2023-01-31T17:22:50.412Z,68.8943276673467
2023-01-31T17:32:52.866Z,69.50971375372156
2023-01-31T17:37:49.088Z,68.58646121458253
2023-01-31T17:42:47.367Z,69.38911052308684
2023-01-31T17:47:43.613Z,69.88119015922477
2023-01-31T17:52:39.862Z,71.06667946570487
2023-01-31T17:57:36.212Z,71.71629130904667
2023-01-31T18:02:32.427Z,72.20193362072932
2023-01-31T18:07:28.708Z,71.48089190652686
2023-01-31T18:12:24.890Z,72.17076023953818
2023-01-31T18:17:21.197Z,71.50947057221937
2023-01-31T18:22:16.440Z,71.55024913463589
2023-01-31T18:27:12.683Z,71.64056429738116
2023-01-31T18:32:08.956Z,70.46857374380826
2023-01-31T18:37:06.194Z,71.52490980850266
2023-01-31T18:42:02.507Z,71.48948595811409
2023-01-31T18:46:58.790Z,71.16546878883591
2023-01-31T18:51:55.036Z,71.25449603182905
2023-01-31T18:56:52.247Z,69.91093427187023
2023-01-31T19:01:51.512Z,73.09039830266394
2023-01-31T19:06:48.737Z,74.315746016261
2023-01-31T19:11:46.071Z,74.02108095547442
2023-01-31T19:16:43.289Z,74.55627485873939
2023-01-31T19:21:46.327Z,74.52963221961944
2023-01-31T19:26:42.982Z,74.34402286965667
2023-01-31T19:31:40.069Z,73.82236134289046
2023-01-31T19:36:40.450Z,73.515781451011
2023-01-31T19:41:37.545Z,73.50775305626405
2023-01-31T19:46:34.792Z,72.44826871721573
2023-01-31T19:51:31.040Z,72.2545353597839
2023-01-31T19:56:27.387Z,72.56390220005272
2023-01-31T20:01:23.823Z,72.62891219148479
2023-01-31T20:06:20.969Z,72.69539596809696
2023-01-31T20:11:18.200Z,72.70401565663833
2023-01-31T20:16:17.515Z,72.5849975574551
2023-01-31T20:21:16.701Z,72.82238339187386
2023-01-31T20:26:19.913Z,73.0722652373722
2023-01-31T20:31:16.194Z,72.76971118533017
2023-01-31T20:36:16.476Z,72.70743019230004
2023-01-31T20:41:20.715Z,73.33015888204984
2023-01-31T20:46:20.993Z,72.74162373935276
2023-01-31T20:51:26.195Z,73.64151788211245
2023-01-31T20:56:26.364Z,73.2845035134406
2023-01-31T21:01:23.695Z,72.18532371672656
2023-01-31T21:06:19.967Z,72.0637566907602
2023-01-31T21:11:20.215Z,71.35533102367799
2023-01-31T21:16:21.485Z,70.8387547502249
2023-01-31T21:21:18.725Z,70.08222327391663
2023-01-31T21:26:19.924Z,68.37965519950049
2023-01-31T21:31:25.266Z,66.72054678684256
2023-01-31T21:36:25.343Z,67.62376945959069
2023-01-31T21:41:25.577Z,69.35816494923321
2023-01-31T21:46:25.877Z,69.23343814339893
2023-01-31T21:51:26.081Z,70.79900075658419
2023-01-31T21:56:31.323Z,70.86278222008185
2023-01-31T22:01:39.569Z,69.79828826258623
2023-01-31T22:06:36.797Z,67.45332524796038
2023-01-31T22:11:34.089Z,65.31928885413183
2023-01-31T22:16:35.333Z,62.577019368740174
2023-01-31T22:21:32.545Z,61.52156646632449
2023-01-31T22:26:28.902Z,62.03497031859712
2023-01-31T22:31:25.165Z,61.34868374948234
2023-01-31T22:36:22.534Z,61.22742757681815
2023-01-31T22:41:20.119Z,59.51243779844481
2023-01-31T22:46:17.932Z,59.91095773444669
2023-01-31T22:51:15.098Z,58.32287759800025
2023-01-31T22:56:12.402Z,61.574257246550104
2023-01-31T23:01:14.637Z,60.797118886162835
2023-01-31T23:06:12.905Z,63.306412532639634
2023-01-31T23:11:10.109Z,62.20888836275693
2023-01-31T23:16:08.502Z,63.43882332978416
2023-01-31T23:21:06.637Z,65.21393746521885
2023-01-31T23:26:03.885Z,64.44666495257616
2023-01-31T23:31:00.258Z,66.52657174523416
2023-01-31T23:35:56.410Z,67.54062155682881
2023-01-31T23:40:52.702Z,67.55542097812327
2023-01-31T23:45:48.981Z,65.48787546215787
2023-01-31T23:50:45.209Z,65.19882036462197
2023-01-31T23:55:41.440Z,64.64522811810053
